sensor_id;sensor_type;location;lat;lon;timestamp;temperature;humidity
47736;DHT22;33501;47.410;9.730;2022-07-03T00:00:34;18.00;99.90
47736;DHT22;33501;47.410;9.730;2022-07-03T00:03:00;17.70;99.90
47736;DHT22;33501;47.410;9.730;2022-07-03T00:05:26;17.70;99.90
47736;DHT22;33501;47.410;9.730;2022-07-03T00:07:52;17.90;99.90
47736;DHT22;33501;47.410;9.730;2022-07-03T00:10:17;17.40;99.90
47736;DHT22;33501;47.410;9.730;2022-07-03T00:12:43;17.50;99.90
47736;DHT22;33501;47.410;9.730;2022-07-03T00:15:09;18.00;99.90
47736;DHT22;33501;47.410;9.730;2022-07-03T00:17:35;17.90;99.90
47736;DHT22;33501;47.410;9.730;2022-07-03T00:20:01;17.90;99.90
47736;DHT22;33501;47.410;9.730;2022-07-03T00:22:26;17.90;99.90
47736;DHT22;33501;47.410;9.730;2022-07-03T00:25:03;17.80;99.90
47736;DHT22;33501;47.410;9.730;2022-07-03T00:27:29;17.80;99.90
47736;DHT22;33501;47.410;9.730;2022-07-03T00:29:58;17.70;99.90
47736;DHT22;33501;47.410;9.730;2022-07-03T00:32:24;17.70;99.90
47736;DHT22;33501;47.410;9.730;2022-07-03T00:34:50;17.60;99.90
47736;DHT22;33501;47.410;9.730;2022-07-03T00:37:16;17.40;99.90
47736;DHT22;33501;47.410;9.730;2022-07-03T00:39:42;17.50;99.90
47736;DHT22;33501;47.410;9.730;2022-07-03T00:42:08;17.50;99.90
47736;DHT22;33501;47.410;9.730;2022-07-03T00:44:42;17.40;99.90
47736;DHT22;33501;47.410;9.730;2022-07-03T00:47:07;17.80;99.90
47736;DHT22;33501;47.410;9.730;2022-07-03T00:49:33;17.50;99.90
47736;DHT22;33501;47.410;9.730;2022-07-03T00:52:02;17.30;99.90
47736;DHT22;33501;47.410;9.730;2022-07-03T00:54:28;17.30;99.90
47736;DHT22;33501;47.410;9.730;2022-07-03T00:56:57;17.50;99.90
47736;DHT22;33501;47.410;9.730;2022-07-03T00:59:25;17.70;99.90
47736;DHT22;33501;47.410;9.730;2022-07-03T01:01:52;17.10;99.90
47736;DHT22;33501;47.410;9.730;2022-07-03T01:12:23;17.60;99.90
47736;DHT22;33501;47.410;9.730;2022-07-03T01:19:43;17.80;99.90
47736;DHT22;33501;47.410;9.730;2022-07-03T01:28:02;17.60;99.90
47736;DHT22;33501;47.410;9.730;2022-07-03T01:30:08;17.20;99.90
47736;DHT22;33501;47.410;9.730;2022-07-03T01:32:43;17.40;99.90
47736;DHT22;33501;47.410;9.730;2022-07-03T01:35:12;17.00;99.90
47736;DHT22;33501;47.410;9.730;2022-07-03T01:37:39;17.00;99.90
47736;DHT22;33501;47.410;9.730;2022-07-03T01:40:05;17.50;99.90
47736;DHT22;33501;47.410;9.730;2022-07-03T01:42:35;16.90;99.90
47736;DHT22;33501;47.410;9.730;2022-07-03T01:45:02;17.40;99.90
47736;DHT22;33501;47.410;9.730;2022-07-03T01:47:28;17.20;99.90
47736;DHT22;33501;47.410;9.730;2022-07-03T01:49:54;17.20;99.90
47736;DHT22;33501;47.410;9.730;2022-07-03T01:52:20;16.60;99.90
47736;DHT22;33501;47.410;9.730;2022-07-03T01:54:47;16.80;99.90
47736;DHT22;33501;47.410;9.730;2022-07-03T01:57:13;17.00;99.90
47736;DHT22;33501;47.410;9.730;2022-07-03T01:59:39;17.00;99.90
47736;DHT22;33501;47.410;9.730;2022-07-03T02:02:18;16.80;99.90
47736;DHT22;33501;47.410;9.730;2022-07-03T02:05:03;17.40;99.90
47736;DHT22;33501;47.410;9.730;2022-07-03T02:07:50;17.10;99.90
47736;DHT22;33501;47.410;9.730;2022-07-03T02:10:17;17.00;99.90
47736;DHT22;33501;47.410;9.730;2022-07-03T02:15:14;17.10;99.90
47736;DHT22;33501;47.410;9.730;2022-07-03T02:17:46;17.10;99.90
47736;DHT22;33501;47.410;9.730;2022-07-03T02:20:13;17.20;99.90
47736;DHT22;33501;47.410;9.730;2022-07-03T02:22:40;16.50;99.90
47736;DHT22;33501;47.410;9.730;2022-07-03T02:25:08;17.00;99.90
47736;DHT22;33501;47.410;9.730;2022-07-03T02:27:41;16.80;99.90
47736;DHT22;33501;47.410;9.730;2022-07-03T02:30:08;17.00;99.90
47736;DHT22;33501;47.410;9.730;2022-07-03T02:32:44;17.40;99.90
47736;DHT22;33501;47.410;9.730;2022-07-03T02:35:11;17.10;99.90
47736;DHT22;33501;47.410;9.730;2022-07-03T02:37:39;17.00;99.90
47736;DHT22;33501;47.410;9.730;2022-07-03T02:44:57;16.20;99.90
47736;DHT22;33501;47.410;9.730;2022-07-03T02:47:27;16.00;99.90
47736;DHT22;33501;47.410;9.730;2022-07-03T02:52:27;16.90;99.90
47736;DHT22;33501;47.410;9.730;2022-07-03T02:54:54;16.50;99.90
47736;DHT22;33501;47.410;9.730;2022-07-03T02:57:20;16.70;99.90
47736;DHT22;33501;47.410;9.730;2022-07-03T03:02:23;16.30;99.90
47736;DHT22;33501;47.410;9.730;2022-07-03T03:04:51;16.50;99.90
47736;DHT22;33501;47.410;9.730;2022-07-03T03:07:20;16.10;99.90
47736;DHT22;33501;47.410;9.730;2022-07-03T03:09:50;16.70;99.90
47736;DHT22;33501;47.410;9.730;2022-07-03T03:12:16;16.30;99.90
47736;DHT22;33501;47.410;9.730;2022-07-03T03:14:48;16.40;99.90
47736;DHT22;33501;47.410;9.730;2022-07-03T03:17:16;16.30;99.90
47736;DHT22;33501;47.410;9.730;2022-07-03T03:19:45;16.90;99.90
47736;DHT22;33501;47.410;9.730;2022-07-03T03:22:27;16.40;99.90
47736;DHT22;33501;47.410;9.730;2022-07-03T03:24:53;16.40;99.90
47736;DHT22;33501;47.410;9.730;2022-07-03T03:27:19;16.10;99.90
47736;DHT22;33501;47.410;9.730;2022-07-03T03:29:46;16.30;99.90
47736;DHT22;33501;47.410;9.730;2022-07-03T03:32:12;16.30;99.90
47736;DHT22;33501;47.410;9.730;2022-07-03T03:34:37;16.30;99.90
47736;DHT22;33501;47.410;9.730;2022-07-03T03:37:04;16.80;99.90
47736;DHT22;33501;47.410;9.730;2022-07-03T03:39:30;17.00;99.90
47736;DHT22;33501;47.410;9.730;2022-07-03T03:41:56;16.60;99.90
47736;DHT22;33501;47.410;9.730;2022-07-03T03:44:22;16.50;99.90
47736;DHT22;33501;47.410;9.730;2022-07-03T03:46:49;16.60;99.90
47736;DHT22;33501;47.410;9.730;2022-07-03T03:49:15;16.40;99.90
47736;DHT22;33501;47.410;9.730;2022-07-03T03:51:40;16.30;99.90
47736;DHT22;33501;47.410;9.730;2022-07-03T03:54:06;16.10;99.90
47736;DHT22;33501;47.410;9.730;2022-07-03T03:56:31;16.00;99.90
47736;DHT22;33501;47.410;9.730;2022-07-03T03:58:57;16.20;99.90
47736;DHT22;33501;47.410;9.730;2022-07-03T04:01:23;16.10;99.90
47736;DHT22;33501;47.410;9.730;2022-07-03T04:03:48;15.80;99.90
47736;DHT22;33501;47.410;9.730;2022-07-03T04:06:14;16.00;99.90
47736;DHT22;33501;47.410;9.730;2022-07-03T04:08:40;15.70;99.90
47736;DHT22;33501;47.410;9.730;2022-07-03T04:11:05;15.90;99.90
47736;DHT22;33501;47.410;9.730;2022-07-03T04:13:31;16.00;99.90
47736;DHT22;33501;47.410;9.730;2022-07-03T04:15:56;16.00;99.90
47736;DHT22;33501;47.410;9.730;2022-07-03T04:18:22;15.70;99.90
47736;DHT22;33501;47.410;9.730;2022-07-03T04:20:48;16.20;99.90
47736;DHT22;33501;47.410;9.730;2022-07-03T04:23:14;15.80;99.90
47736;DHT22;33501;47.410;9.730;2022-07-03T04:25:39;17.90;99.90
47736;DHT22;33501;47.410;9.730;2022-07-03T04:28:05;16.60;99.90
47736;DHT22;33501;47.410;9.730;2022-07-03T04:30:31;16.80;99.90
47736;DHT22;33501;47.410;9.730;2022-07-03T04:32:56;16.80;99.90
47736;DHT22;33501;47.410;9.730;2022-07-03T04:35:22;16.50;99.90
47736;DHT22;33501;47.410;9.730;2022-07-03T04:37:48;17.20;99.90
47736;DHT22;33501;47.410;9.730;2022-07-03T04:40:14;16.70;99.90
47736;DHT22;33501;47.410;9.730;2022-07-03T04:42:39;16.90;99.90
47736;DHT22;33501;47.410;9.730;2022-07-03T04:45:05;17.00;99.90
47736;DHT22;33501;47.410;9.730;2022-07-03T04:47:31;17.30;99.90
47736;DHT22;33501;47.410;9.730;2022-07-03T04:49:56;17.40;99.90
47736;DHT22;33501;47.410;9.730;2022-07-03T04:52:22;18.00;99.90
47736;DHT22;33501;47.410;9.730;2022-07-03T04:54:47;18.20;99.90
47736;DHT22;33501;47.410;9.730;2022-07-03T04:57:13;17.90;99.90
47736;DHT22;33501;47.410;9.730;2022-07-03T04:59:39;18.50;99.90
47736;DHT22;33501;47.410;9.730;2022-07-03T05:02:04;18.40;99.90
47736;DHT22;33501;47.410;9.730;2022-07-03T05:04:30;17.90;99.90
47736;DHT22;33501;47.410;9.730;2022-07-03T05:06:56;18.90;99.90
47736;DHT22;33501;47.410;9.730;2022-07-03T05:09:21;19.00;99.90
47736;DHT22;33501;47.410;9.730;2022-07-03T05:11:47;19.20;99.90
47736;DHT22;33501;47.410;9.730;2022-07-03T05:14:12;19.20;99.90
47736;DHT22;33501;47.410;9.730;2022-07-03T05:16:38;19.50;99.90
47736;DHT22;33501;47.410;9.730;2022-07-03T05:19:04;20.00;99.90
47736;DHT22;33501;47.410;9.730;2022-07-03T05:21:29;19.50;99.90
47736;DHT22;33501;47.410;9.730;2022-07-03T05:23:55;19.70;99.90
47736;DHT22;33501;47.410;9.730;2022-07-03T05:26:21;20.00;99.90
47736;DHT22;33501;47.410;9.730;2022-07-03T05:28:46;20.40;99.90
47736;DHT22;33501;47.410;9.730;2022-07-03T05:31:12;20.50;99.90
47736;DHT22;33501;47.410;9.730;2022-07-03T05:33:37;20.80;99.90
47736;DHT22;33501;47.410;9.730;2022-07-03T05:36:03;20.50;99.90
47736;DHT22;33501;47.410;9.730;2022-07-03T05:38:30;20.50;99.90
47736;DHT22;33501;47.410;9.730;2022-07-03T05:41:14;20.60;99.90
47736;DHT22;33501;47.410;9.730;2022-07-03T05:43:40;20.70;99.90
47736;DHT22;33501;47.410;9.730;2022-07-03T05:46:05;20.50;99.90
47736;DHT22;33501;47.410;9.730;2022-07-03T05:48:31;20.50;99.90
47736;DHT22;33501;47.410;9.730;2022-07-03T05:50:57;20.80;99.90
47736;DHT22;33501;47.410;9.730;2022-07-03T05:53:22;20.60;99.90
47736;DHT22;33501;47.410;9.730;2022-07-03T05:55:48;20.40;99.90
47736;DHT22;33501;47.410;9.730;2022-07-03T05:58:14;20.10;99.90
47736;DHT22;33501;47.410;9.730;2022-07-03T06:00:40;20.00;99.90
47736;DHT22;33501;47.410;9.730;2022-07-03T06:03:06;20.00;99.90
47736;DHT22;33501;47.410;9.730;2022-07-03T06:05:31;19.80;99.90
47736;DHT22;33501;47.410;9.730;2022-07-03T06:07:58;19.90;99.90
47736;DHT22;33501;47.410;9.730;2022-07-03T06:10:24;19.80;99.90
47736;DHT22;33501;47.410;9.730;2022-07-03T06:12:50;19.70;99.90
47736;DHT22;33501;47.410;9.730;2022-07-03T06:15:15;20.10;99.90
47736;DHT22;33501;47.410;9.730;2022-07-03T06:17:41;20.50;99.90
47736;DHT22;33501;47.410;9.730;2022-07-03T06:20:07;20.50;99.90
47736;DHT22;33501;47.410;9.730;2022-07-03T06:22:33;20.50;99.90
47736;DHT22;33501;47.410;9.730;2022-07-03T06:24:58;20.60;99.90
47736;DHT22;33501;47.410;9.730;2022-07-03T06:27:24;20.40;99.90
47736;DHT22;33501;47.410;9.730;2022-07-03T06:29:50;20.60;99.90
47736;DHT22;33501;47.410;9.730;2022-07-03T06:32:16;20.80;99.90
47736;DHT22;33501;47.410;9.730;2022-07-03T06:34:42;21.70;99.90
47736;DHT22;33501;47.410;9.730;2022-07-03T06:37:11;21.10;99.90
47736;DHT22;33501;47.410;9.730;2022-07-03T06:39:37;21.10;99.90
47736;DHT22;33501;47.410;9.730;2022-07-03T06:42:03;21.20;99.90
47736;DHT22;33501;47.410;9.730;2022-07-03T06:44:29;21.60;99.90
47736;DHT22;33501;47.410;9.730;2022-07-03T06:46:54;21.90;99.90
47736;DHT22;33501;47.410;9.730;2022-07-03T06:49:20;21.70;99.90
47736;DHT22;33501;47.410;9.730;2022-07-03T06:51:46;21.50;99.90
47736;DHT22;33501;47.410;9.730;2022-07-03T06:54:11;21.10;99.90
47736;DHT22;33501;47.410;9.730;2022-07-03T06:56:37;21.20;99.90
47736;DHT22;33501;47.410;9.730;2022-07-03T06:59:03;21.60;99.90
47736;DHT22;33501;47.410;9.730;2022-07-03T07:01:29;20.40;99.90
47736;DHT22;33501;47.410;9.730;2022-07-03T07:03:54;21.70;99.90
47736;DHT22;33501;47.410;9.730;2022-07-03T07:06:20;21.60;99.90
47736;DHT22;33501;47.410;9.730;2022-07-03T07:08:46;21.60;99.90
47736;DHT22;33501;47.410;9.730;2022-07-03T07:11:12;21.50;99.90
47736;DHT22;33501;47.410;9.730;2022-07-03T07:13:37;21.40;99.90
47736;DHT22;33501;47.410;9.730;2022-07-03T07:16:03;21.60;99.90
47736;DHT22;33501;47.410;9.730;2022-07-03T07:18:29;22.10;99.90
47736;DHT22;33501;47.410;9.730;2022-07-03T07:20:54;22.20;99.90
47736;DHT22;33501;47.410;9.730;2022-07-03T07:23:22;22.40;99.90
47736;DHT22;33501;47.410;9.730;2022-07-03T07:25:47;22.50;99.90
47736;DHT22;33501;47.410;9.730;2022-07-03T07:28:13;22.40;99.90
47736;DHT22;33501;47.410;9.730;2022-07-03T07:30:39;22.40;99.90
47736;DHT22;33501;47.410;9.730;2022-07-03T07:33:08;22.50;99.90
47736;DHT22;33501;47.410;9.730;2022-07-03T07:35:34;22.50;99.90
47736;DHT22;33501;47.410;9.730;2022-07-03T07:38:00;22.80;99.90
47736;DHT22;33501;47.410;9.730;2022-07-03T07:40:26;22.60;99.90
47736;DHT22;33501;47.410;9.730;2022-07-03T07:42:51;21.60;99.90
47736;DHT22;33501;47.410;9.730;2022-07-03T07:45:17;22.50;99.90
47736;DHT22;33501;47.410;9.730;2022-07-03T07:47:43;22.60;99.90
47736;DHT22;33501;47.410;9.730;2022-07-03T07:50:08;22.80;99.90
47736;DHT22;33501;47.410;9.730;2022-07-03T07:52:34;23.00;99.90
47736;DHT22;33501;47.410;9.730;2022-07-03T07:55:00;23.20;99.90
47736;DHT22;33501;47.410;9.730;2022-07-03T07:57:32;23.10;99.90
47736;DHT22;33501;47.410;9.730;2022-07-03T07:59:58;23.20;99.90
47736;DHT22;33501;47.410;9.730;2022-07-03T08:02:24;23.50;99.90
47736;DHT22;33501;47.410;9.730;2022-07-03T08:05:08;23.60;99.90
47736;DHT22;33501;47.410;9.730;2022-07-03T08:07:52;24.00;99.90
47736;DHT22;33501;47.410;9.730;2022-07-03T08:10:18;24.30;99.90
47736;DHT22;33501;47.410;9.730;2022-07-03T08:12:44;24.40;99.90
47736;DHT22;33501;47.410;9.730;2022-07-03T08:15:09;24.40;99.90
47736;DHT22;33501;47.410;9.730;2022-07-03T08:17:35;24.40;99.90
47736;DHT22;33501;47.410;9.730;2022-07-03T08:20:00;24.60;99.90
47736;DHT22;33501;47.410;9.730;2022-07-03T08:22:26;24.60;99.90
47736;DHT22;33501;47.410;9.730;2022-07-03T08:24:52;24.60;99.90
47736;DHT22;33501;47.410;9.730;2022-07-03T08:27:17;25.10;99.90
47736;DHT22;33501;47.410;9.730;2022-07-03T08:29:44;24.90;99.90
47736;DHT22;33501;47.410;9.730;2022-07-03T08:32:09;25.00;99.90
47736;DHT22;33501;47.410;9.730;2022-07-03T08:34:35;25.00;99.90
47736;DHT22;33501;47.410;9.730;2022-07-03T08:37:01;24.90;99.90
47736;DHT22;33501;47.410;9.730;2022-07-03T08:39:26;25.00;99.90
47736;DHT22;33501;47.410;9.730;2022-07-03T08:41:52;25.00;99.90
47736;DHT22;33501;47.410;9.730;2022-07-03T08:44:18;25.40;99.70
47736;DHT22;33501;47.410;9.730;2022-07-03T08:46:44;25.30;99.50
47736;DHT22;33501;47.410;9.730;2022-07-03T08:49:10;25.60;99.90
47736;DHT22;33501;47.410;9.730;2022-07-03T08:51:36;25.10;99.90
47736;DHT22;33501;47.410;9.730;2022-07-03T08:54:01;25.50;99.90
47736;DHT22;33501;47.410;9.730;2022-07-03T08:56:28;25.00;99.90
47736;DHT22;33501;47.410;9.730;2022-07-03T08:58:55;25.30;99.90
47736;DHT22;33501;47.410;9.730;2022-07-03T09:01:22;25.20;99.90
47736;DHT22;33501;47.410;9.730;2022-07-03T09:03:48;25.60;99.90
47736;DHT22;33501;47.410;9.730;2022-07-03T09:06:13;26.20;99.90
47736;DHT22;33501;47.410;9.730;2022-07-03T09:08:40;26.30;99.90
47736;DHT22;33501;47.410;9.730;2022-07-03T09:11:05;26.30;99.90
47736;DHT22;33501;47.410;9.730;2022-07-03T09:13:31;26.20;99.80
47736;DHT22;33501;47.410;9.730;2022-07-03T09:15:57;26.00;99.70
47736;DHT22;33501;47.410;9.730;2022-07-03T09:18:36;25.70;99.90
47736;DHT22;33501;47.410;9.730;2022-07-03T09:21:02;26.10;99.10
47736;DHT22;33501;47.410;9.730;2022-07-03T09:23:34;26.20;99.90
47736;DHT22;33501;47.410;9.730;2022-07-03T09:26:00;26.20;99.40
47736;DHT22;33501;47.410;9.730;2022-07-03T09:31:14;28.00;98.30
47736;DHT22;33501;47.410;9.730;2022-07-03T09:36:37;27.60;99.90
47736;DHT22;33501;47.410;9.730;2022-07-03T09:39:18;27.80;99.90
47736;DHT22;33501;47.410;9.730;2022-07-03T09:42:17;27.30;99.90
47736;DHT22;33501;47.410;9.730;2022-07-03T09:47:05;28.10;99.90
47736;DHT22;33501;47.410;9.730;2022-07-03T09:55:16;28.10;99.10
47736;DHT22;33501;47.410;9.730;2022-07-03T10:02:56;27.50;97.90
47736;DHT22;33501;47.410;9.730;2022-07-03T10:05:23;28.00;97.40
47736;DHT22;33501;47.410;9.730;2022-07-03T10:07:53;28.20;98.90
47736;DHT22;33501;47.410;9.730;2022-07-03T10:10:22;28.10;97.30
47736;DHT22;33501;47.410;9.730;2022-07-03T10:12:48;28.80;96.90
47736;DHT22;33501;47.410;9.730;2022-07-03T10:15:14;29.70;95.20
47736;DHT22;33501;47.410;9.730;2022-07-03T10:17:40;30.20;94.90
47736;DHT22;33501;47.410;9.730;2022-07-03T10:20:07;30.40;93.80
47736;DHT22;33501;47.410;9.730;2022-07-03T10:22:33;31.40;94.50
47736;DHT22;33501;47.410;9.730;2022-07-03T10:25:01;32.40;93.80
47736;DHT22;33501;47.410;9.730;2022-07-03T10:27:27;31.60;95.40
47736;DHT22;33501;47.410;9.730;2022-07-03T10:29:54;31.10;94.10
47736;DHT22;33501;47.410;9.730;2022-07-03T10:32:20;31.40;93.40
47736;DHT22;33501;47.410;9.730;2022-07-03T10:34:46;31.70;94.30
47736;DHT22;33501;47.410;9.730;2022-07-03T10:42:04;32.30;95.10
47736;DHT22;33501;47.410;9.730;2022-07-03T10:45:02;32.10;93.90
47736;DHT22;33501;47.410;9.730;2022-07-03T10:50:07;30.70;88.90
47736;DHT22;33501;47.410;9.730;2022-07-03T10:52:33;31.20;91.30
47736;DHT22;33501;47.410;9.730;2022-07-03T10:57:26;29.90;96.10
47736;DHT22;33501;47.410;9.730;2022-07-03T11:02:26;32.00;90.40
47736;DHT22;33501;47.410;9.730;2022-07-03T11:07:28;33.90;84.20
47736;DHT22;33501;47.410;9.730;2022-07-03T11:15:28;35.40;73.50
47736;DHT22;33501;47.410;9.730;2022-07-03T11:20:32;32.80;68.70
47736;DHT22;33501;47.410;9.730;2022-07-03T11:23:13;32.90;71.70
47736;DHT22;33501;47.410;9.730;2022-07-03T11:25:48;34.60;69.10
47736;DHT22;33501;47.410;9.730;2022-07-03T11:36:10;34.20;66.50
47736;DHT22;33501;47.410;9.730;2022-07-03T11:38:36;34.40;69.90
47736;DHT22;33501;47.410;9.730;2022-07-03T11:41:06;33.80;71.40
47736;DHT22;33501;47.410;9.730;2022-07-03T11:43:31;33.40;72.20
47736;DHT22;33501;47.410;9.730;2022-07-03T11:45:57;33.10;72.00
47736;DHT22;33501;47.410;9.730;2022-07-03T11:48:23;33.90;70.70
47736;DHT22;33501;47.410;9.730;2022-07-03T11:50:51;34.70;69.80
47736;DHT22;33501;47.410;9.730;2022-07-03T11:56:12;36.80;68.90
47736;DHT22;33501;47.410;9.730;2022-07-03T11:58:42;36.30;84.90
47736;DHT22;33501;47.410;9.730;2022-07-03T12:03:34;36.50;67.50
47736;DHT22;33501;47.410;9.730;2022-07-03T12:05:59;36.00;77.00
47736;DHT22;33501;47.410;9.730;2022-07-03T12:08:26;35.50;82.80
47736;DHT22;33501;47.410;9.730;2022-07-03T12:10:56;34.60;68.00
47736;DHT22;33501;47.410;9.730;2022-07-03T12:13:23;35.70;66.90
47736;DHT22;33501;47.410;9.730;2022-07-03T12:15:48;36.40;69.50
47736;DHT22;33501;47.410;9.730;2022-07-03T12:18:14;35.90;66.90
47736;DHT22;33501;47.410;9.730;2022-07-03T12:20:40;35.50;80.00
47736;DHT22;33501;47.410;9.730;2022-07-03T12:23:06;35.90;73.10
47736;DHT22;33501;47.410;9.730;2022-07-03T12:25:32;35.90;73.80
47736;DHT22;33501;47.410;9.730;2022-07-03T12:28:03;36.20;75.70
47736;DHT22;33501;47.410;9.730;2022-07-03T12:30:29;36.90;72.80
47736;DHT22;33501;47.410;9.730;2022-07-03T12:32:54;35.70;73.40
47736;DHT22;33501;47.410;9.730;2022-07-03T12:35:22;35.00;80.10
47736;DHT22;33501;47.410;9.730;2022-07-03T12:37:48;36.60;84.10
47736;DHT22;33501;47.410;9.730;2022-07-03T12:40:13;35.10;72.00
47736;DHT22;33501;47.410;9.730;2022-07-03T12:42:46;35.60;81.20
47736;DHT22;33501;47.410;9.730;2022-07-03T12:45:12;37.40;77.60
47736;DHT22;33501;47.410;9.730;2022-07-03T12:47:39;35.10;84.10
47736;DHT22;33501;47.410;9.730;2022-07-03T12:50:05;35.20;74.30
47736;DHT22;33501;47.410;9.730;2022-07-03T12:52:33;37.80;77.90
47736;DHT22;33501;47.410;9.730;2022-07-03T12:55:00;35.10;67.30
47736;DHT22;33501;47.410;9.730;2022-07-03T12:57:26;36.50;67.60
47736;DHT22;33501;47.410;9.730;2022-07-03T13:00:12;36.60;67.30
47736;DHT22;33501;47.410;9.730;2022-07-03T13:02:42;35.50;70.40
47736;DHT22;33501;47.410;9.730;2022-07-03T13:05:14;36.40;69.60
47736;DHT22;33501;47.410;9.730;2022-07-03T13:07:41;37.00;67.10
47736;DHT22;33501;47.410;9.730;2022-07-03T13:10:07;35.10;69.10
47736;DHT22;33501;47.410;9.730;2022-07-03T13:12:33;36.00;66.10
47736;DHT22;33501;47.410;9.730;2022-07-03T13:14:59;36.90;65.40
47736;DHT22;33501;47.410;9.730;2022-07-03T13:20:09;36.00;61.70
47736;DHT22;33501;47.410;9.730;2022-07-03T13:22:35;35.90;63.40
47736;DHT22;33501;47.410;9.730;2022-07-03T13:25:01;37.10;62.90
47736;DHT22;33501;47.410;9.730;2022-07-03T13:27:26;37.30;65.20
47736;DHT22;33501;47.410;9.730;2022-07-03T13:29:52;34.60;62.00
47736;DHT22;33501;47.410;9.730;2022-07-03T13:32:17;37.20;64.00
47736;DHT22;33501;47.410;9.730;2022-07-03T13:34:43;36.50;65.30
47736;DHT22;33501;47.410;9.730;2022-07-03T13:37:08;37.80;63.70
47736;DHT22;33501;47.410;9.730;2022-07-03T13:39:34;35.90;61.90
47736;DHT22;33501;47.410;9.730;2022-07-03T13:42:00;35.40;64.70
47736;DHT22;33501;47.410;9.730;2022-07-03T13:44:25;36.30;62.60
47736;DHT22;33501;47.410;9.730;2022-07-03T13:46:51;36.70;66.80
47736;DHT22;33501;47.410;9.730;2022-07-03T13:49:17;34.90;64.10
47736;DHT22;33501;47.410;9.730;2022-07-03T13:51:42;35.60;64.50
47736;DHT22;33501;47.410;9.730;2022-07-03T13:54:08;35.20;64.20
47736;DHT22;33501;47.410;9.730;2022-07-03T13:56:34;36.50;63.10
47736;DHT22;33501;47.410;9.730;2022-07-03T13:58:59;35.50;60.80
47736;DHT22;33501;47.410;9.730;2022-07-03T14:01:25;36.80;60.80
47736;DHT22;33501;47.410;9.730;2022-07-03T14:03:51;34.80;60.10
47736;DHT22;33501;47.410;9.730;2022-07-03T14:06:16;35.20;61.50
47736;DHT22;33501;47.410;9.730;2022-07-03T14:08:42;36.70;60.40
47736;DHT22;33501;47.410;9.730;2022-07-03T14:11:08;36.10;60.20
47736;DHT22;33501;47.410;9.730;2022-07-03T14:13:33;36.70;60.70
47736;DHT22;33501;47.410;9.730;2022-07-03T14:15:59;37.10;60.80
47736;DHT22;33501;47.410;9.730;2022-07-03T14:20:51;38.30;61.20
47736;DHT22;33501;47.410;9.730;2022-07-03T14:23:16;37.90;61.30
47736;DHT22;33501;47.410;9.730;2022-07-03T14:25:42;37.30;60.20
47736;DHT22;33501;47.410;9.730;2022-07-03T14:28:07;36.90;60.50
47736;DHT22;33501;47.410;9.730;2022-07-03T14:30:52;37.80;61.40
47736;DHT22;33501;47.410;9.730;2022-07-03T14:33:36;37.00;60.40
47736;DHT22;33501;47.410;9.730;2022-07-03T14:36:02;37.40;61.90
47736;DHT22;33501;47.410;9.730;2022-07-03T14:38:27;37.80;61.70
47736;DHT22;33501;47.410;9.730;2022-07-03T14:40:53;37.80;62.90
47736;DHT22;33501;47.410;9.730;2022-07-03T14:43:18;35.70;63.00
47736;DHT22;33501;47.410;9.730;2022-07-03T14:45:44;36.70;65.80
47736;DHT22;33501;47.410;9.730;2022-07-03T14:48:10;36.10;65.50
47736;DHT22;33501;47.410;9.730;2022-07-03T14:50:35;37.10;64.70
47736;DHT22;33501;47.410;9.730;2022-07-03T14:53:02;37.30;66.30
47736;DHT22;33501;47.410;9.730;2022-07-03T14:55:29;38.50;63.30
47736;DHT22;33501;47.410;9.730;2022-07-03T14:58:04;38.40;61.10
47736;DHT22;33501;47.410;9.730;2022-07-03T15:00:30;36.50;61.90
47736;DHT22;33501;47.410;9.730;2022-07-03T15:03:03;39.40;63.70
47736;DHT22;33501;47.410;9.730;2022-07-03T15:05:29;37.20;66.60
47736;DHT22;33501;47.410;9.730;2022-07-03T15:10:35;39.10;72.60
47736;DHT22;33501;47.410;9.730;2022-07-03T15:13:01;37.00;75.10
47736;DHT22;33501;47.410;9.730;2022-07-03T15:15:27;37.90;69.70
47736;DHT22;33501;47.410;9.730;2022-07-03T15:17:54;37.20;69.90
47736;DHT22;33501;47.410;9.730;2022-07-03T15:20:22;35.80;67.10
47736;DHT22;33501;47.410;9.730;2022-07-03T15:22:49;36.70;67.60
47736;DHT22;33501;47.410;9.730;2022-07-03T15:25:16;37.10;67.60
47736;DHT22;33501;47.410;9.730;2022-07-03T15:27:43;35.20;66.60
47736;DHT22;33501;47.410;9.730;2022-07-03T15:30:11;37.60;70.00
47736;DHT22;33501;47.410;9.730;2022-07-03T15:32:36;37.20;66.80
47736;DHT22;33501;47.410;9.730;2022-07-03T15:35:02;37.40;67.50
47736;DHT22;33501;47.410;9.730;2022-07-03T15:40:16;36.10;66.10
47736;DHT22;33501;47.410;9.730;2022-07-03T15:43:02;36.90;65.90
47736;DHT22;33501;47.410;9.730;2022-07-03T15:52:56;35.30;70.30
47736;DHT22;33501;47.410;9.730;2022-07-03T15:55:22;36.20;69.30
47736;DHT22;33501;47.410;9.730;2022-07-03T16:00:16;35.30;69.70
47736;DHT22;33501;47.410;9.730;2022-07-03T16:07:33;36.10;68.60
47736;DHT22;33501;47.410;9.730;2022-07-03T16:10:00;36.50;74.60
47736;DHT22;33501;47.410;9.730;2022-07-03T16:12:26;36.40;73.60
47736;DHT22;33501;47.410;9.730;2022-07-03T16:14:53;37.50;68.10
47736;DHT22;33501;47.410;9.730;2022-07-03T16:17:20;36.70;69.20
47736;DHT22;33501;47.410;9.730;2022-07-03T16:19:46;34.90;68.40
47736;DHT22;33501;47.410;9.730;2022-07-03T16:22:12;36.50;68.80
47736;DHT22;33501;47.410;9.730;2022-07-03T16:24:39;36.90;69.30
47736;DHT22;33501;47.410;9.730;2022-07-03T16:27:06;35.70;68.90
47736;DHT22;33501;47.410;9.730;2022-07-03T16:29:31;38.40;70.20
47736;DHT22;33501;47.410;9.730;2022-07-03T16:32:01;38.90;66.80
47736;DHT22;33501;47.410;9.730;2022-07-03T16:34:46;37.50;67.30
47736;DHT22;33501;47.410;9.730;2022-07-03T16:37:15;36.50;66.30
47736;DHT22;33501;47.410;9.730;2022-07-03T16:39:44;36.10;68.60
47736;DHT22;33501;47.410;9.730;2022-07-03T16:42:12;36.40;69.90
47736;DHT22;33501;47.410;9.730;2022-07-03T16:44:38;34.80;68.60
47736;DHT22;33501;47.410;9.730;2022-07-03T16:47:08;33.50;72.30
47736;DHT22;33501;47.410;9.730;2022-07-03T16:49:34;33.20;69.90
47736;DHT22;33501;47.410;9.730;2022-07-03T16:52:04;33.40;71.70
47736;DHT22;33501;47.410;9.730;2022-07-03T16:54:30;32.60;72.20
47736;DHT22;33501;47.410;9.730;2022-07-03T16:56:57;32.90;73.20
47736;DHT22;33501;47.410;9.730;2022-07-03T16:59:24;32.40;73.50
47736;DHT22;33501;47.410;9.730;2022-07-03T17:01:51;31.60;73.60
47736;DHT22;33501;47.410;9.730;2022-07-03T17:04:18;32.50;73.10
47736;DHT22;33501;47.410;9.730;2022-07-03T17:06:44;32.30;73.70
47736;DHT22;33501;47.410;9.730;2022-07-03T17:09:11;31.90;73.60
47736;DHT22;33501;47.410;9.730;2022-07-03T17:11:41;32.40;74.20
47736;DHT22;33501;47.410;9.730;2022-07-03T17:14:07;33.10;72.40
47736;DHT22;33501;47.410;9.730;2022-07-03T17:16:34;35.10;71.40
47736;DHT22;33501;47.410;9.730;2022-07-03T17:19:02;35.80;69.80
47736;DHT22;33501;47.410;9.730;2022-07-03T17:21:29;35.00;71.10